createdAt,value
2023-04-18T00:00:57.638Z,3.30
2023-04-18T00:03:25.356Z,3.00
2023-04-18T00:05:52.957Z,3.03
2023-04-18T00:08:23.526Z,2.72
2023-04-18T00:10:50.582Z,3.63
2023-04-18T00:13:18.571Z,3.15
2023-04-18T00:15:46.595Z,3.08
2023-04-18T00:18:16.159Z,2.92
2023-04-18T00:20:48.066Z,3.05
2023-04-18T00:23:27.931Z,3.03
2023-04-18T00:25:55.355Z,3.15
2023-04-18T00:28:22.841Z,2.60
2023-04-18T00:30:50.195Z,2.95
2023-04-18T00:33:17.954Z,2.70
2023-04-18T00:35:45.731Z,2.80
2023-04-18T00:38:12.910Z,3.22
2023-04-18T00:40:41.261Z,2.83
2023-04-18T00:43:14.541Z,3.20
2023-04-18T00:45:41.966Z,3.28
2023-04-18T00:48:12.011Z,2.97
2023-04-18T00:50:40.786Z,2.97
2023-04-18T00:53:13.154Z,2.97
2023-04-18T00:55:41.271Z,2.97
2023-04-18T00:58:08.766Z,3.28
2023-04-18T01:00:36.298Z,3.28
2023-04-18T01:03:04.059Z,2.92
2023-04-18T01:05:31.498Z,2.80
2023-04-18T01:08:01.443Z,3.20
2023-04-18T01:10:30.771Z,2.90
2023-04-18T01:13:17.690Z,2.78
2023-04-18T01:15:46.997Z,2.92
2023-04-18T01:18:18.337Z,3.10
2023-04-18T01:20:50.371Z,2.80
2023-04-18T01:23:18.479Z,2.67
2023-04-18T01:25:47.128Z,2.83
2023-04-18T01:28:15.502Z,2.97
2023-04-18T01:30:42.832Z,2.80
2023-04-18T01:33:10.131Z,2.83
2023-04-18T01:35:37.764Z,3.15
2023-04-18T01:38:05.100Z,3.17
2023-04-18T01:40:32.490Z,2.90
2023-04-18T01:42:59.980Z,2.97
2023-04-18T01:45:27.435Z,3.10
2023-04-18T01:47:54.690Z,2.70
2023-04-18T01:50:22.527Z,2.72
2023-04-18T01:52:52.673Z,2.88
2023-04-18T01:55:20.841Z,3.20
2023-04-18T01:57:48.416Z,2.78
2023-04-18T02:00:16.404Z,2.88
2023-04-18T02:02:44.125Z,3.15
2023-04-18T02:05:11.878Z,3.00
2023-04-18T02:07:40.170Z,3.13
2023-04-18T02:10:08.018Z,3.30
2023-04-18T02:12:35.071Z,3.55
2023-04-18T02:15:03.133Z,2.50
2023-04-18T02:17:30.667Z,3.03
2023-04-18T02:19:59.193Z,2.85
2023-04-18T02:22:28.728Z,3.00
2023-04-18T02:24:58.818Z,3.13
2023-04-18T02:27:26.185Z,2.97
2023-04-18T02:29:53.500Z,3.17
2023-04-18T02:32:21.550Z,3.30
2023-04-18T02:34:48.933Z,2.75
2023-04-18T02:37:17.814Z,3.45
2023-04-18T02:39:47.353Z,2.58
2023-04-18T02:42:14.605Z,3.47
2023-04-18T02:44:41.720Z,3.22
2023-04-18T02:47:08.979Z,3.03
2023-04-18T02:49:36.537Z,3.33
2023-04-18T02:52:03.881Z,3.00
2023-04-18T02:54:31.180Z,3.42
2023-04-18T02:57:11.954Z,3.38
2023-04-18T02:59:39.451Z,3.72
2023-04-18T03:02:06.750Z,3.28
2023-04-18T03:04:34.464Z,2.95
2023-04-18T03:07:01.954Z,2.80
2023-04-18T03:09:29.410Z,3.08
2023-04-18T03:11:56.855Z,3.30
2023-04-18T03:14:23.996Z,3.78
2023-04-18T03:16:53.812Z,2.88
2023-04-18T03:19:22.488Z,4.13
2023-04-18T03:21:52.324Z,3.47
2023-04-18T03:24:19.885Z,3.13
2023-04-18T03:26:47.464Z,3.13
2023-04-18T03:29:14.514Z,3.78
2023-04-18T03:31:42.621Z,3.60
2023-04-18T03:34:10.212Z,3.05
2023-04-18T03:36:37.597Z,3.00
2023-04-18T03:39:05.344Z,3.22
2023-04-18T03:41:32.993Z,2.83
2023-04-18T03:44:00.961Z,3.75
2023-04-18T03:46:28.436Z,3.47
2023-04-18T03:48:56.292Z,3.53
2023-04-18T03:51:23.487Z,3.47
2023-04-18T03:53:50.576Z,3.08
2023-04-18T03:56:17.734Z,3.40
2023-04-18T03:58:44.916Z,3.13
2023-04-18T04:01:13.154Z,3.83
2023-04-18T04:03:43.878Z,3.90
2023-04-18T04:06:11.355Z,3.33
2023-04-18T04:08:38.452Z,3.45
2023-04-18T04:11:05.648Z,4.05
2023-04-18T04:13:32.999Z,3.50
2023-04-18T04:16:00.314Z,3.60
2023-04-18T04:18:31.455Z,3.55
2023-04-18T04:21:00.149Z,4.03
2023-04-18T04:23:27.669Z,3.22
2023-04-18T04:25:57.076Z,4.55
2023-04-18T04:28:24.317Z,4.10
2023-04-18T04:30:51.953Z,2.70
2023-04-18T04:33:20.415Z,3.40
2023-04-18T04:35:48.022Z,4.50
2023-04-18T04:38:26.147Z,3.90
2023-04-18T04:40:58.793Z,4.13
2023-04-18T04:43:28.866Z,4.43
2023-04-18T04:45:56.358Z,3.85
2023-04-18T04:48:25.050Z,4.00
2023-04-18T04:51:05.528Z,4.20
2023-04-18T04:53:32.768Z,3.75
2023-04-18T04:56:00.351Z,4.60
2023-04-18T04:58:27.581Z,4.05
2023-04-18T05:00:55.095Z,4.55
2023-04-18T05:03:23.292Z,4.07
2023-04-18T05:05:50.954Z,4.40
2023-04-18T05:08:18.063Z,4.30
2023-04-18T05:10:47.610Z,4.53
2023-04-18T05:13:15.199Z,5.22
2023-04-18T05:15:42.585Z,4.45
2023-04-18T05:18:13.182Z,4.88
2023-04-18T05:20:41.044Z,4.90
2023-04-18T05:23:09.866Z,5.40
2023-04-18T05:25:39.973Z,4.35
2023-04-18T05:28:08.761Z,4.30
2023-04-18T05:30:40.306Z,4.95
2023-04-18T05:33:08.030Z,4.47
2023-04-18T05:35:35.394Z,4.32
2023-04-18T05:38:02.707Z,4.53
2023-04-18T05:40:30.424Z,4.65
2023-04-18T05:42:57.678Z,4.85
2023-04-18T05:45:25.489Z,4.65
2023-04-18T05:47:54.169Z,4.97
2023-04-18T05:50:21.922Z,4.28
2023-04-18T05:52:49.680Z,4.40
2023-04-18T05:55:16.936Z,4.28
2023-04-18T05:57:44.266Z,4.47
2023-04-18T06:00:13.172Z,3.72
2023-04-18T06:02:41.151Z,4.50
2023-04-18T06:05:09.789Z,3.80
2023-04-18T06:07:38.115Z,4.32
2023-04-18T06:10:09.432Z,4.38
2023-04-18T06:12:37.204Z,4.57
2023-04-18T06:15:05.978Z,4.43
2023-04-18T06:17:35.156Z,4.30
2023-04-18T06:20:03.553Z,3.95
2023-04-18T06:22:30.851Z,4.38
2023-04-18T06:24:58.051Z,4.38
2023-04-18T06:27:31.504Z,4.30
2023-04-18T06:29:59.713Z,4.00
2023-04-18T06:32:27.267Z,3.75
2023-04-18T06:34:56.984Z,3.60
2023-04-18T06:37:24.983Z,3.63
2023-04-18T06:39:52.525Z,4.05
2023-04-18T06:42:22.769Z,4.13
2023-04-18T06:44:50.664Z,4.18
2023-04-18T06:47:18.102Z,4.38
2023-04-18T06:49:45.767Z,4.20
2023-04-18T06:52:13.370Z,3.97
2023-04-18T06:54:43.752Z,3.40
2023-04-18T06:57:11.127Z,4.18
2023-04-18T06:59:38.844Z,3.85
2023-04-18T07:02:06.409Z,4.00
2023-04-18T07:04:34.159Z,4.10
2023-04-18T07:07:02.358Z,3.67
2023-04-18T07:09:29.973Z,5.00
2023-04-18T07:11:59.382Z,3.67
2023-04-18T07:14:27.558Z,3.40
2023-04-18T07:16:55.329Z,3.95
2023-04-18T07:19:22.592Z,3.55
2023-04-18T07:21:50.052Z,3.42
2023-04-18T07:24:17.580Z,3.42
2023-04-18T07:26:45.030Z,4.55
2023-04-18T07:29:12.340Z,4.15
2023-04-18T07:31:43.227Z,3.30
2023-04-18T07:36:37.875Z,3.53
2023-04-18T07:39:05.210Z,3.45
2023-04-18T07:41:33.421Z,3.33
2023-04-18T07:44:02.566Z,3.33
2023-04-18T07:46:32.570Z,3.05
2023-04-18T07:49:00.178Z,3.60
2023-04-18T07:51:31.745Z,3.25
2023-04-18T07:53:59.778Z,2.85
2023-04-18T07:56:28.232Z,2.83
2023-04-18T07:58:56.007Z,3.45
2023-04-18T08:01:24.959Z,2.90
2023-04-18T08:03:54.325Z,2.75
2023-04-18T08:06:21.926Z,2.67
2023-04-18T08:08:50.128Z,2.75
2023-04-18T08:11:17.947Z,2.60
2023-04-18T08:13:46.915Z,3.17
2023-04-18T08:16:17.075Z,2.28
2023-04-18T08:18:47.630Z,2.78
2023-04-18T08:21:15.453Z,2.70
2023-04-18T08:23:43.270Z,2.95
2023-04-18T08:26:10.821Z,2.90
2023-04-18T08:28:38.009Z,2.95
2023-04-18T08:31:05.983Z,2.63
2023-04-18T08:33:33.511Z,3.08
2023-04-18T08:36:04.234Z,2.88
2023-04-18T08:38:31.711Z,2.70
2023-04-18T08:40:59.470Z,2.88
2023-04-18T08:43:28.562Z,2.80
2023-04-18T08:45:59.669Z,2.70
2023-04-18T08:48:30.114Z,2.92
2023-04-18T08:50:59.175Z,2.40
2023-04-18T08:53:27.352Z,2.80
2023-04-18T08:55:58.226Z,2.28
2023-04-18T08:58:28.008Z,2.78
2023-04-18T09:00:55.578Z,2.50
2023-04-18T09:03:39.402Z,2.10
2023-04-18T09:06:19.530Z,2.17
2023-04-18T09:08:59.632Z,2.22
2023-04-18T09:11:29.533Z,1.80
2023-04-18T09:13:59.251Z,1.70
2023-04-18T09:16:27.970Z,2.05
2023-04-18T09:19:21.576Z,2.38
2023-04-18T09:22:01.326Z,1.73
2023-04-18T09:24:29.541Z,1.80
2023-04-18T09:26:58.939Z,1.80
2023-04-18T09:29:47.457Z,2.13
2023-04-18T09:32:29.442Z,2.10
2023-04-18T09:35:05.692Z,2.10
2023-04-18T09:37:33.307Z,1.90
2023-04-18T09:40:17.554Z,1.80
2023-04-18T09:42:45.634Z,2.30
2023-04-18T09:45:16.436Z,1.92
2023-04-18T09:47:43.702Z,2.03
2023-04-18T09:50:11.670Z,1.73
2023-04-18T09:52:44.596Z,1.67
2023-04-18T09:55:15.674Z,1.77
2023-04-18T09:57:46.866Z,2.25
2023-04-18T10:00:24.881Z,2.17
2023-04-18T10:03:13.780Z,2.00
2023-04-18T10:05:42.032Z,2.03
2023-04-18T10:08:09.701Z,2.28
2023-04-18T10:10:38.814Z,2.10
2023-04-18T10:13:11.913Z,1.90
2023-04-18T10:15:40.338Z,2.22
2023-04-18T10:18:11.474Z,1.48
2023-04-18T10:20:41.607Z,1.70
2023-04-18T10:23:36.520Z,1.60
2023-04-18T10:26:05.722Z,1.83
2023-04-18T10:28:57.184Z,2.33
2023-04-18T10:31:29.203Z,2.33
2023-04-18T10:36:29.080Z,2.22
2023-04-18T10:39:20.295Z,2.13
2023-04-18T10:41:51.919Z,2.17
2023-04-18T10:44:27.383Z,2.53
2023-04-18T10:46:54.972Z,2.45
2023-04-18T10:49:31.066Z,2.30
2023-04-18T10:52:01.548Z,2.50
2023-04-18T10:54:39.225Z,2.67
2023-04-18T10:57:09.070Z,1.80
2023-04-18T10:59:39.997Z,2.50
2023-04-18T11:02:25.782Z,2.58
2023-04-18T11:04:54.141Z,2.50
2023-04-18T11:07:34.245Z,2.53
2023-04-18T11:10:02.453Z,2.33
2023-04-18T11:12:34.862Z,2.00
2023-04-18T11:15:11.156Z,2.35
2023-04-18T11:17:40.415Z,3.20
2023-04-18T11:20:11.304Z,2.80
2023-04-18T11:22:53.694Z,2.13
2023-04-18T11:25:26.225Z,2.40
2023-04-18T11:27:55.855Z,2.60
2023-04-18T11:30:24.996Z,2.13
2023-04-18T11:32:54.435Z,2.83
2023-04-18T11:35:21.686Z,2.17
2023-04-18T11:37:50.507Z,2.67
2023-04-18T11:40:21.338Z,2.50
2023-04-18T11:42:48.620Z,2.30
2023-04-18T11:45:16.407Z,2.67
2023-04-18T11:47:45.099Z,2.90
2023-04-18T11:50:17.664Z,2.28
2023-04-18T11:52:50.558Z,3.08
2023-04-18T11:55:24.752Z,2.22
2023-04-18T11:57:57.281Z,2.60
2023-04-18T12:00:39.647Z,2.20
2023-04-18T12:03:46.297Z,2.03
2023-04-18T12:06:16.659Z,3.60
2023-04-18T12:08:44.486Z,1.60
2023-04-18T12:11:23.255Z,2.05
2023-04-18T12:13:50.561Z,2.10
2023-04-18T12:16:18.528Z,1.83
2023-04-18T12:18:47.448Z,2.38
2023-04-18T12:21:25.523Z,2.72
2023-04-18T12:23:54.969Z,2.83
2023-04-18T12:26:24.076Z,2.25
2023-04-18T12:28:53.037Z,2.15
2023-04-18T12:31:24.105Z,2.15
2023-04-18T12:33:51.684Z,1.80
2023-04-18T12:36:21.077Z,2.30
2023-04-18T12:38:50.160Z,2.08
2023-04-18T12:41:18.010Z,1.80
2023-04-18T12:43:45.638Z,2.65
2023-04-18T12:46:13.617Z,1.90
2023-04-18T12:48:40.837Z,2.20
2023-04-18T12:51:10.992Z,2.13
2023-04-18T12:53:38.544Z,1.90
2023-04-18T12:56:06.504Z,2.38
2023-04-18T12:58:34.023Z,1.83
2023-04-18T13:01:07.811Z,1.85
2023-04-18T13:03:37.230Z,2.88
2023-04-18T13:06:06.272Z,1.85
2023-04-18T13:08:33.966Z,2.58
2023-04-18T13:11:01.555Z,2.55
2023-04-18T13:13:34.453Z,2.60
2023-04-18T13:16:02.923Z,2.22
2023-04-18T13:18:29.996Z,2.13
2023-04-18T13:20:59.928Z,3.00
2023-04-18T13:25:59.736Z,3.17
2023-04-18T13:28:26.988Z,2.30
2023-04-18T13:30:54.421Z,2.17
2023-04-18T13:33:21.810Z,2.40
2023-04-18T13:35:49.285Z,2.28
2023-04-18T13:38:22.643Z,2.58
2023-04-18T13:40:53.765Z,2.00
2023-04-18T13:43:28.262Z,2.33
2023-04-18T13:45:56.241Z,2.30
2023-04-18T13:48:27.884Z,2.35
2023-04-18T13:50:55.591Z,2.30
2023-04-18T13:53:23.153Z,2.97
2023-04-18T13:55:50.607Z,3.05
2023-04-18T13:58:18.532Z,2.55
2023-04-18T14:00:45.932Z,2.90
2023-04-18T14:03:16.315Z,2.85
2023-04-18T14:05:45.918Z,2.50
2023-04-18T14:08:33.836Z,2.72
2023-04-18T14:15:22.702Z,2.45
2023-04-18T14:17:50.201Z,2.42
2023-04-18T14:20:19.583Z,2.50
2023-04-18T14:23:03.268Z,2.50
2023-04-18T14:25:31.347Z,2.10
2023-04-18T14:28:09.961Z,1.92
2023-04-18T14:30:39.495Z,2.05
2023-04-18T14:33:07.589Z,2.63
2023-04-18T14:35:35.230Z,2.58
2023-04-18T14:38:04.943Z,1.90
2023-04-18T14:40:33.057Z,2.70
2023-04-18T14:43:01.777Z,2.78
2023-04-18T14:45:31.279Z,2.50
2023-04-18T14:47:59.564Z,2.20
2023-04-18T14:50:30.224Z,1.85
2023-04-18T14:52:57.580Z,1.80
2023-04-18T14:55:25.045Z,2.42
2023-04-18T14:57:52.348Z,2.47
2023-04-18T15:00:21.883Z,2.03
2023-04-18T15:02:49.434Z,1.85
2023-04-18T15:05:18.247Z,2.28
2023-04-18T15:07:45.376Z,2.55
2023-04-18T15:10:13.230Z,2.42
2023-04-18T15:12:41.930Z,2.38
2023-04-18T15:15:09.658Z,2.47
2023-04-18T15:17:36.835Z,1.98
2023-04-18T15:20:09.066Z,1.85
2023-04-18T15:22:37.071Z,2.28
2023-04-18T15:25:05.803Z,1.80
2023-04-18T15:27:33.687Z,2.08
2023-04-18T15:30:00.942Z,1.60
2023-04-18T15:32:28.535Z,1.85
2023-04-18T15:34:56.458Z,1.67
2023-04-18T15:37:23.924Z,2.00
2023-04-18T15:39:51.436Z,2.17
2023-04-18T15:42:26.837Z,1.48
2023-04-18T15:44:54.346Z,1.42
2023-04-18T15:47:21.950Z,1.83
2023-04-18T15:49:49.470Z,2.33
2023-04-18T15:52:17.181Z,1.75
2023-04-18T15:54:44.802Z,1.80
2023-04-18T15:57:12.319Z,1.85
2023-04-18T15:59:39.745Z,2.10
2023-04-18T16:02:09.353Z,1.98
2023-04-18T16:04:37.480Z,1.90
2023-04-18T16:07:05.180Z,1.77
2023-04-18T16:09:32.917Z,2.00
2023-04-18T16:12:01.714Z,2.10
2023-04-18T16:14:29.177Z,1.83
2023-04-18T16:16:57.642Z,2.38
2023-04-18T16:19:26.684Z,1.95
2023-04-18T16:21:54.377Z,1.95
2023-04-18T16:24:21.879Z,1.90
2023-04-18T16:26:49.659Z,1.70
2023-04-18T16:29:17.511Z,2.03
2023-04-18T16:31:45.114Z,2.13
2023-04-18T16:34:13.030Z,1.90
2023-04-18T16:36:41.235Z,1.70
2023-04-18T16:39:09.036Z,2.35
2023-04-18T16:41:36.567Z,2.00
2023-04-18T16:44:04.209Z,2.10
2023-04-18T16:46:32.478Z,2.30
2023-04-18T16:48:59.893Z,2.20
2023-04-18T16:51:29.062Z,2.00
2023-04-18T16:53:56.318Z,2.40
2023-04-18T16:56:23.906Z,2.50
2023-04-18T16:58:52.375Z,1.98
2023-04-18T17:01:19.684Z,2.80
2023-04-18T17:03:47.052Z,2.80
2023-04-18T17:06:14.588Z,2.50
2023-04-18T17:08:42.206Z,3.60
2023-04-18T17:11:09.444Z,3.40
2023-04-18T17:13:36.748Z,3.67
2023-04-18T17:16:04.482Z,3.00
2023-04-18T17:18:32.684Z,3.00
2023-04-18T17:21:00.060Z,2.88
2023-04-18T17:23:27.980Z,3.80
2023-04-18T17:25:55.510Z,3.55
2023-04-18T17:28:23.986Z,3.38
2023-04-18T17:30:51.775Z,4.43
2023-04-18T17:33:18.869Z,2.95
2023-04-18T17:35:49.245Z,3.80
2023-04-18T17:40:43.961Z,3.45
2023-04-18T17:43:14.840Z,2.88
2023-04-18T17:45:45.309Z,3.35
2023-04-18T17:48:12.836Z,3.03
2023-04-18T17:53:10.505Z,2.75
2023-04-18T17:55:40.218Z,3.45
2023-04-18T17:58:07.417Z,3.10
2023-04-18T18:00:34.716Z,3.00
2023-04-18T18:03:03.048Z,2.92
2023-04-18T18:05:30.713Z,3.55
2023-04-18T18:08:03.467Z,3.40
2023-04-18T18:10:48.846Z,3.05
2023-04-18T18:13:17.010Z,2.95
2023-04-18T18:15:44.735Z,3.42
2023-04-18T18:18:12.014Z,3.50
2023-04-18T18:20:42.816Z,3.50
2023-04-18T18:23:14.818Z,3.28
2023-04-18T18:25:41.976Z,3.58
2023-04-18T18:28:09.106Z,3.15
2023-04-18T18:30:38.260Z,2.95
2023-04-18T18:33:11.810Z,2.97
2023-04-18T18:35:39.556Z,3.17
2023-04-18T18:38:07.636Z,2.95
2023-04-18T18:40:34.978Z,2.70
2023-04-18T18:43:02.277Z,2.95
2023-04-18T18:45:30.077Z,2.78
2023-04-18T18:47:57.824Z,2.42
2023-04-18T18:50:25.116Z,3.33
2023-04-18T18:52:52.979Z,3.30
2023-04-18T18:55:20.499Z,3.28
2023-04-18T18:57:47.677Z,2.88
2023-04-18T19:00:15.031Z,3.47
2023-04-18T19:02:42.709Z,3.45
2023-04-18T19:05:12.931Z,3.58
2023-04-18T19:10:13.292Z,3.15
2023-04-18T19:12:40.741Z,3.00
2023-04-18T19:15:09.110Z,3.15
2023-04-18T19:17:36.947Z,3.47
2023-04-18T19:20:05.088Z,4.00
2023-04-18T19:22:32.795Z,2.88
2023-04-18T19:25:01.206Z,3.72
2023-04-18T19:27:30.804Z,3.45
2023-04-18T19:29:58.668Z,3.03
2023-04-18T19:32:34.052Z,3.40
2023-04-18T19:35:01.707Z,3.28
2023-04-18T19:37:29.854Z,2.88
2023-04-18T19:39:57.201Z,3.10
2023-04-18T19:42:24.744Z,3.83
2023-04-18T19:44:52.441Z,3.22
2023-04-18T19:47:20.410Z,4.30
2023-04-18T19:49:48.059Z,3.40
2023-04-18T19:52:16.730Z,3.28
2023-04-18T19:54:44.270Z,3.40
2023-04-18T19:57:13.278Z,3.45
2023-04-18T19:59:41.197Z,4.38
2023-04-18T20:02:09.249Z,4.05
2023-04-18T20:04:37.056Z,3.60
2023-04-18T20:07:04.761Z,3.65
2023-04-18T20:09:31.814Z,4.18
2023-04-18T20:12:03.245Z,3.33
2023-04-18T20:14:30.981Z,3.55
2023-04-18T20:17:01.007Z,3.78
2023-04-18T20:19:30.037Z,4.00
2023-04-18T20:21:57.495Z,3.30
2023-04-18T20:24:28.305Z,3.50
2023-04-18T20:26:55.660Z,3.65
2023-04-18T20:29:22.990Z,3.92
2023-04-18T20:31:50.657Z,3.15
2023-04-18T20:34:18.227Z,4.53
2023-04-18T20:36:46.750Z,4.20
2023-04-18T20:39:14.513Z,3.88
2023-04-18T20:41:48.706Z,3.72
2023-04-18T20:44:22.340Z,4.40
2023-04-18T20:46:50.003Z,3.88
2023-04-18T20:49:17.832Z,3.78
2023-04-18T20:51:45.325Z,3.92
2023-04-18T20:54:12.988Z,3.42
2023-04-18T20:56:40.816Z,3.35
2023-04-18T20:59:17.680Z,4.28
2023-04-18T21:01:45.220Z,3.40
2023-04-18T21:04:12.780Z,4.20
2023-04-18T21:06:40.584Z,3.65
2023-04-18T21:09:18.481Z,4.38
2023-04-18T21:11:46.108Z,3.95
2023-04-18T21:14:14.233Z,3.15
2023-04-18T21:16:41.687Z,3.28
2023-04-18T21:19:10.979Z,3.25
2023-04-18T21:21:38.473Z,3.70
2023-04-18T21:24:05.949Z,3.35
2023-04-18T21:26:33.359Z,3.33
2023-04-18T21:29:07.458Z,3.65
2023-04-18T21:31:35.739Z,3.50
2023-04-18T21:34:06.382Z,4.20
2023-04-18T21:36:33.837Z,3.50
2023-04-18T21:39:04.490Z,3.72
2023-04-18T21:41:32.088Z,3.35
2023-04-18T21:43:59.827Z,4.07
2023-04-18T21:46:30.062Z,4.15
2023-04-18T21:48:57.689Z,3.85
2023-04-18T21:51:25.883Z,4.80
2023-04-18T21:53:53.378Z,3.75
2023-04-18T21:56:20.934Z,4.10
2023-04-18T21:58:59.135Z,4.07
2023-04-18T22:01:26.832Z,3.67
2023-04-18T22:03:54.329Z,3.80
2023-04-18T22:06:23.470Z,3.80
2023-04-18T22:08:51.834Z,3.95
2023-04-18T22:11:19.193Z,4.85
2023-04-18T22:13:47.549Z,4.68
2023-04-18T22:16:18.775Z,3.92
2023-04-18T22:18:46.217Z,4.95
2023-04-18T22:21:22.759Z,3.45
2023-04-18T22:23:50.505Z,3.78
2023-04-18T22:26:17.799Z,4.18
2023-04-18T22:28:47.920Z,3.75
2023-04-18T22:31:15.723Z,4.38
2023-04-18T22:33:43.120Z,3.97
2023-04-18T22:36:10.323Z,3.92
2023-04-18T22:38:40.199Z,4.18
2023-04-18T22:41:08.347Z,3.90
2023-04-18T22:43:35.590Z,3.90
2023-04-18T22:46:03.323Z,4.13
2023-04-18T22:48:31.358Z,4.55
2023-04-18T22:51:02.125Z,4.45
2023-04-18T22:53:30.099Z,4.32
2023-04-18T22:55:57.758Z,3.88
2023-04-18T22:58:25.737Z,4.40
2023-04-18T23:00:53.519Z,5.00
2023-04-18T23:03:24.201Z,4.28
2023-04-18T23:05:51.368Z,3.75
2023-04-18T23:08:24.054Z,4.68
2023-04-18T23:10:51.300Z,4.72
2023-04-18T23:13:18.766Z,4.57
2023-04-18T23:15:46.007Z,4.45
2023-04-18T23:18:13.182Z,4.15
2023-04-18T23:20:40.592Z,4.00
2023-04-18T23:23:08.823Z,4.53
2023-04-18T23:25:36.863Z,4.70
2023-04-18T23:28:04.791Z,4.25
2023-04-18T23:30:32.285Z,4.43
2023-04-18T23:32:59.938Z,4.93
2023-04-18T23:35:30.311Z,3.95
2023-04-18T23:37:58.771Z,4.68
2023-04-18T23:40:26.525Z,4.93
2023-04-18T23:42:56.483Z,4.72
2023-04-18T23:45:24.722Z,4.68
2023-04-18T23:47:52.457Z,4.97
2023-04-18T23:50:20.079Z,4.35
2023-04-18T23:52:49.907Z,3.88
2023-04-18T23:55:17.449Z,4.20
2023-04-18T23:57:45.298Z,4.30
